sensor_id;sensor_type;location;lat;lon;timestamp;temperature;humidity
20590;DHT22;10453;50.810;12.540;2023-08-07T00:00:54;14.10;99.90
20590;DHT22;10453;50.810;12.540;2023-08-07T00:05:11;14.00;99.90
20590;DHT22;10453;50.810;12.540;2023-08-07T00:09:29;14.00;99.90
20590;DHT22;10453;50.810;12.540;2023-08-07T00:13:46;14.00;99.90
20590;DHT22;10453;50.810;12.540;2023-08-07T00:18:03;14.10;99.90
20590;DHT22;10453;50.810;12.540;2023-08-07T00:22:20;14.10;99.90
20590;DHT22;10453;50.810;12.540;2023-08-07T00:26:37;14.10;99.90
20590;DHT22;10453;50.810;12.540;2023-08-07T00:30:56;14.10;99.90
20590;DHT22;10453;50.810;12.540;2023-08-07T00:35:13;14.10;99.90
20590;DHT22;10453;50.810;12.540;2023-08-07T00:39:30;14.10;99.90
20590;DHT22;10453;50.810;12.540;2023-08-07T00:43:47;14.20;99.90
20590;DHT22;10453;50.810;12.540;2023-08-07T00:48:05;14.20;99.90
20590;DHT22;10453;50.810;12.540;2023-08-07T00:52:23;14.20;99.90
20590;DHT22;10453;50.810;12.540;2023-08-07T00:56:40;14.10;99.90
20590;DHT22;10453;50.810;12.540;2023-08-07T01:00:58;14.20;99.90
20590;DHT22;10453;50.810;12.540;2023-08-07T01:05:15;14.10;99.90
20590;DHT22;10453;50.810;12.540;2023-08-07T01:09:33;14.20;99.90
20590;DHT22;10453;50.810;12.540;2023-08-07T01:14:06;14.10;99.90
20590;DHT22;10453;50.810;12.540;2023-08-07T01:18:26;14.20;99.90
20590;DHT22;10453;50.810;12.540;2023-08-07T01:22:43;14.10;99.90
20590;DHT22;10453;50.810;12.540;2023-08-07T01:31:36;14.10;99.90
20590;DHT22;10453;50.810;12.540;2023-08-07T01:35:57;14.10;99.90
20590;DHT22;10453;50.810;12.540;2023-08-07T01:40:16;14.10;99.90
20590;DHT22;10453;50.810;12.540;2023-08-07T01:44:33;14.10;99.90
20590;DHT22;10453;50.810;12.540;2023-08-07T01:48:51;14.00;99.90
20590;DHT22;10453;50.810;12.540;2023-08-07T01:53:08;14.10;99.90
20590;DHT22;10453;50.810;12.540;2023-08-07T01:57:25;14.10;99.90
20590;DHT22;10453;50.810;12.540;2023-08-07T02:01:43;14.00;99.90
20590;DHT22;10453;50.810;12.540;2023-08-07T02:06:00;14.10;99.90
20590;DHT22;10453;50.810;12.540;2023-08-07T02:10:18;14.10;99.90
20590;DHT22;10453;50.810;12.540;2023-08-07T02:14:36;14.10;99.90
20590;DHT22;10453;50.810;12.540;2023-08-07T02:18:53;14.00;99.90
20590;DHT22;10453;50.810;12.540;2023-08-07T02:23:10;14.00;99.90
20590;DHT22;10453;50.810;12.540;2023-08-07T02:27:27;14.00;99.90
20590;DHT22;10453;50.810;12.540;2023-08-07T02:31:45;14.00;99.90
20590;DHT22;10453;50.810;12.540;2023-08-07T02:36:02;14.00;99.90
20590;DHT22;10453;50.810;12.540;2023-08-07T02:40:19;14.00;99.90
20590;DHT22;10453;50.810;12.540;2023-08-07T02:44:36;14.10;99.90
20590;DHT22;10453;50.810;12.540;2023-08-07T02:48:54;14.10;99.90
20590;DHT22;10453;50.810;12.540;2023-08-07T02:53:11;14.10;99.90
20590;DHT22;10453;50.810;12.540;2023-08-07T02:57:28;14.10;99.90
20590;DHT22;10453;50.810;12.540;2023-08-07T03:01:46;14.10;99.90
20590;DHT22;10453;50.810;12.540;2023-08-07T03:06:03;14.10;99.90
20590;DHT22;10453;50.810;12.540;2023-08-07T03:10:21;14.10;99.90
20590;DHT22;10453;50.810;12.540;2023-08-07T03:14:41;14.20;99.90
20590;DHT22;10453;50.810;12.540;2023-08-07T03:18:58;14.10;99.90
20590;DHT22;10453;50.810;12.540;2023-08-07T03:23:16;14.10;99.90
20590;DHT22;10453;50.810;12.540;2023-08-07T03:27:33;14.10;99.90
20590;DHT22;10453;50.810;12.540;2023-08-07T03:31:50;14.10;99.90
20590;DHT22;10453;50.810;12.540;2023-08-07T03:36:08;14.00;99.90
20590;DHT22;10453;50.810;12.540;2023-08-07T03:40:26;14.00;99.90
20590;DHT22;10453;50.810;12.540;2023-08-07T03:44:43;14.00;99.90
20590;DHT22;10453;50.810;12.540;2023-08-07T03:49:00;14.00;99.90
20590;DHT22;10453;50.810;12.540;2023-08-07T03:53:17;14.10;99.90
20590;DHT22;10453;50.810;12.540;2023-08-07T03:57:35;14.00;99.90
20590;DHT22;10453;50.810;12.540;2023-08-07T04:01:52;14.00;99.90
20590;DHT22;10453;50.810;12.540;2023-08-07T04:06:09;14.00;99.90
20590;DHT22;10453;50.810;12.540;2023-08-07T04:10:29;13.90;99.90
20590;DHT22;10453;50.810;12.540;2023-08-07T04:14:47;13.80;99.90
20590;DHT22;10453;50.810;12.540;2023-08-07T04:19:04;13.80;99.90
20590;DHT22;10453;50.810;12.540;2023-08-07T04:23:22;13.90;99.90
20590;DHT22;10453;50.810;12.540;2023-08-07T04:27:39;13.90;99.90
20590;DHT22;10453;50.810;12.540;2023-08-07T04:31:56;13.90;99.90
20590;DHT22;10453;50.810;12.540;2023-08-07T04:36:13;13.90;99.90
20590;DHT22;10453;50.810;12.540;2023-08-07T04:40:31;13.90;99.90
20590;DHT22;10453;50.810;12.540;2023-08-07T04:44:48;13.80;99.90
20590;DHT22;10453;50.810;12.540;2023-08-07T04:49:05;13.90;99.90
20590;DHT22;10453;50.810;12.540;2023-08-07T04:53:23;13.90;99.90
20590;DHT22;10453;50.810;12.540;2023-08-07T04:57:40;13.90;99.90
20590;DHT22;10453;50.810;12.540;2023-08-07T05:01:57;13.90;99.90
20590;DHT22;10453;50.810;12.540;2023-08-07T05:06:18;13.90;99.90
20590;DHT22;10453;50.810;12.540;2023-08-07T05:10:36;13.80;99.90
20590;DHT22;10453;50.810;12.540;2023-08-07T05:14:53;13.80;99.90
20590;DHT22;10453;50.810;12.540;2023-08-07T05:19:10;13.90;99.90
20590;DHT22;10453;50.810;12.540;2023-08-07T05:23:27;13.90;99.90
20590;DHT22;10453;50.810;12.540;2023-08-07T05:27:45;13.90;99.90
20590;DHT22;10453;50.810;12.540;2023-08-07T05:32:02;14.00;99.90
20590;DHT22;10453;50.810;12.540;2023-08-07T05:36:20;14.00;99.90
20590;DHT22;10453;50.810;12.540;2023-08-07T05:40:37;14.00;99.90
20590;DHT22;10453;50.810;12.540;2023-08-07T05:44:55;14.00;99.90
20590;DHT22;10453;50.810;12.540;2023-08-07T05:49:12;14.00;99.90
20590;DHT22;10453;50.810;12.540;2023-08-07T05:53:29;13.80;99.90
20590;DHT22;10453;50.810;12.540;2023-08-07T05:57:46;13.70;99.90
20590;DHT22;10453;50.810;12.540;2023-08-07T06:02:04;13.80;99.90
20590;DHT22;10453;50.810;12.540;2023-08-07T06:06:22;13.60;99.90
20590;DHT22;10453;50.810;12.540;2023-08-07T06:10:40;13.70;99.90
20590;DHT22;10453;50.810;12.540;2023-08-07T06:14:57;13.80;99.90
20590;DHT22;10453;50.810;12.540;2023-08-07T06:19:14;13.80;99.90
20590;DHT22;10453;50.810;12.540;2023-08-07T06:23:47;13.90;99.90
20590;DHT22;10453;50.810;12.540;2023-08-07T06:28:05;14.00;99.90
20590;DHT22;10453;50.810;12.540;2023-08-07T06:32:22;14.00;99.90
20590;DHT22;10453;50.810;12.540;2023-08-07T06:36:39;13.90;99.90
20590;DHT22;10453;50.810;12.540;2023-08-07T06:40:57;13.90;99.90
20590;DHT22;10453;50.810;12.540;2023-08-07T06:45:14;13.80;99.90
20590;DHT22;10453;50.810;12.540;2023-08-07T06:49:31;13.80;99.90
20590;DHT22;10453;50.810;12.540;2023-08-07T06:53:50;13.80;99.90
20590;DHT22;10453;50.810;12.540;2023-08-07T06:58:07;13.80;99.90
20590;DHT22;10453;50.810;12.540;2023-08-07T07:02:25;13.80;99.90
20590;DHT22;10453;50.810;12.540;2023-08-07T07:06:42;14.00;99.90
20590;DHT22;10453;50.810;12.540;2023-08-07T07:10:59;14.10;99.90
20590;DHT22;10453;50.810;12.540;2023-08-07T07:15:17;14.20;99.90
20590;DHT22;10453;50.810;12.540;2023-08-07T07:19:34;14.30;99.90
20590;DHT22;10453;50.810;12.540;2023-08-07T07:23:51;14.50;99.90
20590;DHT22;10453;50.810;12.540;2023-08-07T07:28:09;14.60;99.90
20590;DHT22;10453;50.810;12.540;2023-08-07T07:32:26;14.60;99.90
20590;DHT22;10453;50.810;12.540;2023-08-07T07:36:43;14.60;99.90
20590;DHT22;10453;50.810;12.540;2023-08-07T07:41:01;14.50;99.90
20590;DHT22;10453;50.810;12.540;2023-08-07T07:45:18;14.40;99.90
20590;DHT22;10453;50.810;12.540;2023-08-07T07:49:35;14.20;99.90
20590;DHT22;10453;50.810;12.540;2023-08-07T07:53:52;14.20;99.90
20590;DHT22;10453;50.810;12.540;2023-08-07T07:58:30;14.50;99.90
20590;DHT22;10453;50.810;12.540;2023-08-07T08:02:47;14.70;99.90
20590;DHT22;10453;50.810;12.540;2023-08-07T08:07:05;14.70;99.90
20590;DHT22;10453;50.810;12.540;2023-08-07T08:11:22;14.60;99.90
20590;DHT22;10453;50.810;12.540;2023-08-07T08:15:40;14.40;99.90
20590;DHT22;10453;50.810;12.540;2023-08-07T08:19:57;14.50;99.90
20590;DHT22;10453;50.810;12.540;2023-08-07T08:24:15;14.40;99.90
20590;DHT22;10453;50.810;12.540;2023-08-07T08:28:32;14.50;99.90
20590;DHT22;10453;50.810;12.540;2023-08-07T08:32:49;14.60;99.90
20590;DHT22;10453;50.810;12.540;2023-08-07T08:37:07;14.70;99.90
20590;DHT22;10453;50.810;12.540;2023-08-07T08:41:25;14.70;99.90
20590;DHT22;10453;50.810;12.540;2023-08-07T08:45:43;14.60;99.90
20590;DHT22;10453;50.810;12.540;2023-08-07T08:50:09;14.60;99.90
20590;DHT22;10453;50.810;12.540;2023-08-07T08:54:28;14.60;99.90
20590;DHT22;10453;50.810;12.540;2023-08-07T08:58:46;14.70;99.90
20590;DHT22;10453;50.810;12.540;2023-08-07T09:03:03;14.80;99.90
20590;DHT22;10453;50.810;12.540;2023-08-07T09:07:22;15.20;99.90
20590;DHT22;10453;50.810;12.540;2023-08-07T09:11:41;15.30;99.90
20590;DHT22;10453;50.810;12.540;2023-08-07T09:16:00;15.30;99.90
20590;DHT22;10453;50.810;12.540;2023-08-07T09:20:19;15.70;99.90
20590;DHT22;10453;50.810;12.540;2023-08-07T09:24:36;15.80;99.90
20590;DHT22;10453;50.810;12.540;2023-08-07T09:28:53;16.00;99.90
20590;DHT22;10453;50.810;12.540;2023-08-07T09:33:11;15.90;99.90
20590;DHT22;10453;50.810;12.540;2023-08-07T09:37:28;15.80;99.90
20590;DHT22;10453;50.810;12.540;2023-08-07T09:41:51;15.70;99.90
20590;DHT22;10453;50.810;12.540;2023-08-07T09:46:08;15.80;99.90
20590;DHT22;10453;50.810;12.540;2023-08-07T09:50:26;16.20;99.90
20590;DHT22;10453;50.810;12.540;2023-08-07T09:54:44;16.40;99.90
20590;DHT22;10453;50.810;12.540;2023-08-07T09:59:01;16.50;99.90
20590;DHT22;10453;50.810;12.540;2023-08-07T10:03:19;16.90;99.90
20590;DHT22;10453;50.810;12.540;2023-08-07T10:07:37;17.00;99.90
20590;DHT22;10453;50.810;12.540;2023-08-07T10:11:55;17.20;99.90
20590;DHT22;10453;50.810;12.540;2023-08-07T10:16:13;16.90;99.90
20590;DHT22;10453;50.810;12.540;2023-08-07T10:20:31;16.50;99.90
20590;DHT22;10453;50.810;12.540;2023-08-07T10:24:50;16.40;99.90
20590;DHT22;10453;50.810;12.540;2023-08-07T10:29:11;16.50;99.90
20590;DHT22;10453;50.810;12.540;2023-08-07T10:33:30;16.30;99.90
20590;DHT22;10453;50.810;12.540;2023-08-07T10:37:48;16.10;99.90
20590;DHT22;10453;50.810;12.540;2023-08-07T10:42:05;16.20;99.90
20590;DHT22;10453;50.810;12.540;2023-08-07T10:46:22;16.40;99.90
20590;DHT22;10453;50.810;12.540;2023-08-07T10:51:03;16.20;99.90
20590;DHT22;10453;50.810;12.540;2023-08-07T10:55:20;16.10;99.90
20590;DHT22;10453;50.810;12.540;2023-08-07T10:59:38;16.20;99.90
20590;DHT22;10453;50.810;12.540;2023-08-07T11:03:59;16.90;99.90
20590;DHT22;10453;50.810;12.540;2023-08-07T11:08:22;17.10;99.90
20590;DHT22;10453;50.810;12.540;2023-08-07T11:12:39;17.50;99.90
20590;DHT22;10453;50.810;12.540;2023-08-07T11:16:57;17.00;99.90
20590;DHT22;10453;50.810;12.540;2023-08-07T11:21:15;17.90;99.90
20590;DHT22;10453;50.810;12.540;2023-08-07T11:25:32;18.50;99.90
20590;DHT22;10453;50.810;12.540;2023-08-07T11:29:49;20.10;99.90
20590;DHT22;10453;50.810;12.540;2023-08-07T11:34:06;19.10;99.90
20590;DHT22;10453;50.810;12.540;2023-08-07T11:42:47;17.90;99.90
20590;DHT22;10453;50.810;12.540;2023-08-07T11:47:05;16.50;99.90
20590;DHT22;10453;50.810;12.540;2023-08-07T11:51:22;15.80;99.90
20590;DHT22;10453;50.810;12.540;2023-08-07T11:56:00;16.00;99.90
20590;DHT22;10453;50.810;12.540;2023-08-07T12:00:18;16.30;99.90
20590;DHT22;10453;50.810;12.540;2023-08-07T12:04:35;18.20;99.90
20590;DHT22;10453;50.810;12.540;2023-08-07T12:08:57;19.30;99.90
20590;DHT22;10453;50.810;12.540;2023-08-07T12:13:14;19.60;99.90
20590;DHT22;10453;50.810;12.540;2023-08-07T12:17:32;19.20;99.90
20590;DHT22;10453;50.810;12.540;2023-08-07T12:21:49;17.30;99.90
20590;DHT22;10453;50.810;12.540;2023-08-07T12:26:06;17.80;99.90
20590;DHT22;10453;50.810;12.540;2023-08-07T12:30:24;19.20;99.90
20590;DHT22;10453;50.810;12.540;2023-08-07T12:34:41;20.00;99.90
20590;DHT22;10453;50.810;12.540;2023-08-07T12:39:02;20.30;99.90
20590;DHT22;10453;50.810;12.540;2023-08-07T12:43:19;19.00;99.90
20590;DHT22;10453;50.810;12.540;2023-08-07T12:47:36;17.60;99.90
20590;DHT22;10453;50.810;12.540;2023-08-07T12:51:54;17.50;99.90
20590;DHT22;10453;50.810;12.540;2023-08-07T12:56:13;18.00;99.90
20590;DHT22;10453;50.810;12.540;2023-08-07T13:00:30;20.00;99.90
20590;DHT22;10453;50.810;12.540;2023-08-07T13:04:48;21.90;99.90
20590;DHT22;10453;50.810;12.540;2023-08-07T13:09:07;21.20;99.90
20590;DHT22;10453;50.810;12.540;2023-08-07T13:13:24;21.30;99.90
20590;DHT22;10453;50.810;12.540;2023-08-07T13:17:42;20.80;99.90
20590;DHT22;10453;50.810;12.540;2023-08-07T13:21:59;21.00;99.90
20590;DHT22;10453;50.810;12.540;2023-08-07T13:26:17;20.50;99.90
20590;DHT22;10453;50.810;12.540;2023-08-07T13:30:35;19.20;99.90
20590;DHT22;10453;50.810;12.540;2023-08-07T13:34:54;19.40;99.90
20590;DHT22;10453;50.810;12.540;2023-08-07T13:39:11;18.80;99.90
20590;DHT22;10453;50.810;12.540;2023-08-07T13:43:28;18.20;99.90
20590;DHT22;10453;50.810;12.540;2023-08-07T13:47:46;17.30;99.90
20590;DHT22;10453;50.810;12.540;2023-08-07T13:52:03;15.80;99.90
20590;DHT22;10453;50.810;12.540;2023-08-07T13:56:21;15.70;99.90
20590;DHT22;10453;50.810;12.540;2023-08-07T14:00:39;16.40;99.90
20590;DHT22;10453;50.810;12.540;2023-08-07T14:04:58;18.20;99.90
20590;DHT22;10453;50.810;12.540;2023-08-07T14:09:15;17.90;99.90
20590;DHT22;10453;50.810;12.540;2023-08-07T14:13:35;16.90;99.90
20590;DHT22;10453;50.810;12.540;2023-08-07T14:17:53;16.30;99.90
20590;DHT22;10453;50.810;12.540;2023-08-07T14:22:11;16.30;99.90
20590;DHT22;10453;50.810;12.540;2023-08-07T14:26:28;16.50;99.90
20590;DHT22;10453;50.810;12.540;2023-08-07T14:30:47;16.50;99.90
20590;DHT22;10453;50.810;12.540;2023-08-07T14:35:05;16.20;99.90
20590;DHT22;10453;50.810;12.540;2023-08-07T14:39:22;16.20;99.90
20590;DHT22;10453;50.810;12.540;2023-08-07T14:43:40;16.20;99.90
20590;DHT22;10453;50.810;12.540;2023-08-07T14:47:58;16.90;99.90
20590;DHT22;10453;50.810;12.540;2023-08-07T14:52:15;17.40;99.90
20590;DHT22;10453;50.810;12.540;2023-08-07T14:56:32;17.70;99.90
20590;DHT22;10453;50.810;12.540;2023-08-07T15:00:54;17.90;99.90
20590;DHT22;10453;50.810;12.540;2023-08-07T15:05:14;17.40;99.90
20590;DHT22;10453;50.810;12.540;2023-08-07T15:09:31;17.40;99.90
20590;DHT22;10453;50.810;12.540;2023-08-07T15:13:49;18.10;99.90
20590;DHT22;10453;50.810;12.540;2023-08-07T15:18:06;18.50;99.90
20590;DHT22;10453;50.810;12.540;2023-08-07T15:22:23;17.50;99.90
20590;DHT22;10453;50.810;12.540;2023-08-07T15:26:41;17.60;99.90
20590;DHT22;10453;50.810;12.540;2023-08-07T15:30:58;16.90;99.90
20590;DHT22;10453;50.810;12.540;2023-08-07T15:35:15;15.00;99.90
20590;DHT22;10453;50.810;12.540;2023-08-07T15:39:33;14.20;99.90
20590;DHT22;10453;50.810;12.540;2023-08-07T15:43:50;13.90;99.90
20590;DHT22;10453;50.810;12.540;2023-08-07T15:48:07;13.90;99.90
20590;DHT22;10453;50.810;12.540;2023-08-07T15:52:25;13.90;99.90
20590;DHT22;10453;50.810;12.540;2023-08-07T15:56:42;14.00;99.90
20590;DHT22;10453;50.810;12.540;2023-08-07T16:01:00;14.00;99.90
20590;DHT22;10453;50.810;12.540;2023-08-07T16:05:17;14.10;99.90
20590;DHT22;10453;50.810;12.540;2023-08-07T16:09:37;14.00;99.90
20590;DHT22;10453;50.810;12.540;2023-08-07T16:13:55;13.90;99.90
20590;DHT22;10453;50.810;12.540;2023-08-07T16:18:12;13.80;99.90
20590;DHT22;10453;50.810;12.540;2023-08-07T16:22:29;13.80;99.90
20590;DHT22;10453;50.810;12.540;2023-08-07T16:26:46;14.00;99.90
20590;DHT22;10453;50.810;12.540;2023-08-07T16:31:04;14.40;99.90
20590;DHT22;10453;50.810;12.540;2023-08-07T16:35:21;14.60;99.90
20590;DHT22;10453;50.810;12.540;2023-08-07T16:39:39;14.80;99.90
20590;DHT22;10453;50.810;12.540;2023-08-07T16:43:56;14.80;99.90
20590;DHT22;10453;50.810;12.540;2023-08-07T16:48:14;14.70;99.90
20590;DHT22;10453;50.810;12.540;2023-08-07T16:52:31;14.50;99.90
20590;DHT22;10453;50.810;12.540;2023-08-07T16:56:49;14.50;99.90
20590;DHT22;10453;50.810;12.540;2023-08-07T17:01:06;14.60;99.90
20590;DHT22;10453;50.810;12.540;2023-08-07T17:05:24;14.60;99.90
20590;DHT22;10453;50.810;12.540;2023-08-07T17:09:42;14.90;99.90
20590;DHT22;10453;50.810;12.540;2023-08-07T17:14:00;15.30;99.90
20590;DHT22;10453;50.810;12.540;2023-08-07T17:18:17;15.40;99.90
20590;DHT22;10453;50.810;12.540;2023-08-07T17:22:35;15.40;99.90
20590;DHT22;10453;50.810;12.540;2023-08-07T17:26:52;15.30;99.90
20590;DHT22;10453;50.810;12.540;2023-08-07T17:31:10;15.20;99.90
20590;DHT22;10453;50.810;12.540;2023-08-07T17:35:27;15.10;99.90
20590;DHT22;10453;50.810;12.540;2023-08-07T17:39:46;15.00;99.90
20590;DHT22;10453;50.810;12.540;2023-08-07T17:44:03;15.00;99.90
20590;DHT22;10453;50.810;12.540;2023-08-07T17:48:21;15.10;99.90
20590;DHT22;10453;50.810;12.540;2023-08-07T17:52:39;15.00;99.90
20590;DHT22;10453;50.810;12.540;2023-08-07T17:56:56;14.90;99.90
20590;DHT22;10453;50.810;12.540;2023-08-07T18:01:14;14.70;99.90
20590;DHT22;10453;50.810;12.540;2023-08-07T18:05:34;14.70;99.90
20590;DHT22;10453;50.810;12.540;2023-08-07T18:09:51;14.80;99.90
20590;DHT22;10453;50.810;12.540;2023-08-07T18:14:09;14.70;99.90
20590;DHT22;10453;50.810;12.540;2023-08-07T18:18:26;14.60;99.90
20590;DHT22;10453;50.810;12.540;2023-08-07T18:22:44;14.50;99.90
20590;DHT22;10453;50.810;12.540;2023-08-07T18:27:01;14.40;99.90
20590;DHT22;10453;50.810;12.540;2023-08-07T18:31:19;14.40;99.90
20590;DHT22;10453;50.810;12.540;2023-08-07T18:35:38;14.40;99.90
20590;DHT22;10453;50.810;12.540;2023-08-07T18:39:56;14.50;99.90
20590;DHT22;10453;50.810;12.540;2023-08-07T18:44:13;14.40;99.90
20590;DHT22;10453;50.810;12.540;2023-08-07T18:48:32;14.20;99.90
20590;DHT22;10453;50.810;12.540;2023-08-07T18:52:50;14.00;99.90
20590;DHT22;10453;50.810;12.540;2023-08-07T18:57:07;13.70;99.90
20590;DHT22;10453;50.810;12.540;2023-08-07T19:01:25;13.60;99.90
20590;DHT22;10453;50.810;12.540;2023-08-07T19:05:42;13.50;99.90
20590;DHT22;10453;50.810;12.540;2023-08-07T19:10:05;13.40;99.90
20590;DHT22;10453;50.810;12.540;2023-08-07T19:14:24;13.40;99.90
20590;DHT22;10453;50.810;12.540;2023-08-07T19:18:41;13.30;99.90
20590;DHT22;10453;50.810;12.540;2023-08-07T19:22:59;13.30;99.90
20590;DHT22;10453;50.810;12.540;2023-08-07T19:27:16;13.30;99.90
20590;DHT22;10453;50.810;12.540;2023-08-07T19:31:34;13.40;99.90
20590;DHT22;10453;50.810;12.540;2023-08-07T19:35:52;13.40;99.90
20590;DHT22;10453;50.810;12.540;2023-08-07T19:40:10;13.40;99.90
20590;DHT22;10453;50.810;12.540;2023-08-07T19:44:28;13.40;99.90
20590;DHT22;10453;50.810;12.540;2023-08-07T19:48:46;13.40;99.90
20590;DHT22;10453;50.810;12.540;2023-08-07T19:53:04;13.40;99.90
20590;DHT22;10453;50.810;12.540;2023-08-07T19:57:21;13.30;99.90
20590;DHT22;10453;50.810;12.540;2023-08-07T20:01:38;13.40;99.90
20590;DHT22;10453;50.810;12.540;2023-08-07T20:05:56;13.50;99.90
20590;DHT22;10453;50.810;12.540;2023-08-07T20:10:14;13.50;99.90
20590;DHT22;10453;50.810;12.540;2023-08-07T20:14:40;13.60;99.90
20590;DHT22;10453;50.810;12.540;2023-08-07T20:18:58;13.80;99.90
20590;DHT22;10453;50.810;12.540;2023-08-07T20:23:16;13.90;99.90
20590;DHT22;10453;50.810;12.540;2023-08-07T20:27:33;13.90;99.90
20590;DHT22;10453;50.810;12.540;2023-08-07T20:31:51;13.80;99.90
20590;DHT22;10453;50.810;12.540;2023-08-07T20:36:08;13.70;99.90
20590;DHT22;10453;50.810;12.540;2023-08-07T20:40:26;13.60;99.90
20590;DHT22;10453;50.810;12.540;2023-08-07T20:44:44;13.50;99.90
20590;DHT22;10453;50.810;12.540;2023-08-07T20:49:01;13.40;99.90
20590;DHT22;10453;50.810;12.540;2023-08-07T20:53:18;13.30;99.90
20590;DHT22;10453;50.810;12.540;2023-08-07T20:57:36;13.20;99.90
20590;DHT22;10453;50.810;12.540;2023-08-07T21:01:53;13.20;99.90
20590;DHT22;10453;50.810;12.540;2023-08-07T21:06:10;13.20;99.90
20590;DHT22;10453;50.810;12.540;2023-08-07T21:10:28;13.30;99.90
20590;DHT22;10453;50.810;12.540;2023-08-07T21:14:45;13.40;99.90
20590;DHT22;10453;50.810;12.540;2023-08-07T21:19:02;13.50;99.90
20590;DHT22;10453;50.810;12.540;2023-08-07T21:23:19;13.60;99.90
20590;DHT22;10453;50.810;12.540;2023-08-07T21:27:37;13.50;99.90
20590;DHT22;10453;50.810;12.540;2023-08-07T21:31:54;13.40;99.90
20590;DHT22;10453;50.810;12.540;2023-08-07T21:36:12;13.50;99.90
20590;DHT22;10453;50.810;12.540;2023-08-07T21:40:29;13.30;99.90
20590;DHT22;10453;50.810;12.540;2023-08-07T21:44:46;13.30;99.90
20590;DHT22;10453;50.810;12.540;2023-08-07T21:49:03;13.20;99.90
20590;DHT22;10453;50.810;12.540;2023-08-07T21:53:21;13.20;99.90
20590;DHT22;10453;50.810;12.540;2023-08-07T21:57:38;13.20;99.90
20590;DHT22;10453;50.810;12.540;2023-08-07T22:01:55;13.10;99.90
20590;DHT22;10453;50.810;12.540;2023-08-07T22:06:13;13.10;99.90
20590;DHT22;10453;50.810;12.540;2023-08-07T22:10:31;13.00;99.90
20590;DHT22;10453;50.810;12.540;2023-08-07T22:14:48;13.00;99.90
20590;DHT22;10453;50.810;12.540;2023-08-07T22:19:05;12.80;99.90
20590;DHT22;10453;50.810;12.540;2023-08-07T22:23:23;12.80;99.90
20590;DHT22;10453;50.810;12.540;2023-08-07T22:27:40;12.70;99.90
20590;DHT22;10453;50.810;12.540;2023-08-07T22:31:58;12.70;99.90
20590;DHT22;10453;50.810;12.540;2023-08-07T22:36:15;12.50;99.90
20590;DHT22;10453;50.810;12.540;2023-08-07T22:40:33;12.40;99.90
20590;DHT22;10453;50.810;12.540;2023-08-07T22:44:50;12.30;99.90
20590;DHT22;10453;50.810;12.540;2023-08-07T22:49:07;12.20;99.90
20590;DHT22;10453;50.810;12.540;2023-08-07T22:53:24;12.20;99.90
20590;DHT22;10453;50.810;12.540;2023-08-07T22:57:41;12.10;99.90
20590;DHT22;10453;50.810;12.540;2023-08-07T23:01:59;12.10;99.90
20590;DHT22;10453;50.810;12.540;2023-08-07T23:06:16;12.00;99.90
20590;DHT22;10453;50.810;12.540;2023-08-07T23:10:33;11.90;99.90
20590;DHT22;10453;50.810;12.540;2023-08-07T23:14:51;11.90;99.90
20590;DHT22;10453;50.810;12.540;2023-08-07T23:19:08;11.80;99.90
20590;DHT22;10453;50.810;12.540;2023-08-07T23:23:27;11.70;99.90
20590;DHT22;10453;50.810;12.540;2023-08-07T23:27:44;11.70;99.90
20590;DHT22;10453;50.810;12.540;2023-08-07T23:32:01;11.70;99.90
20590;DHT22;10453;50.810;12.540;2023-08-07T23:36:19;11.60;99.90
20590;DHT22;10453;50.810;12.540;2023-08-07T23:40:37;11.60;99.90
20590;DHT22;10453;50.810;12.540;2023-08-07T23:44:55;11.60;99.90
20590;DHT22;10453;50.810;12.540;2023-08-07T23:49:12;11.70;99.90
20590;DHT22;10453;50.810;12.540;2023-08-07T23:53:29;11.60;99.90
20590;DHT22;10453;50.810;12.540;2023-08-07T23:57:46;11.50;99.90
